Time;durP1;ratioP1;P1;durP2;ratioP2;P2;SDS_P1;SDS_P2;PMS_P1;PMS_P2;Temp;Humidity;BMP_temperature;BMP_pressure;BME280_temperature;BME280_humidity;BME280_pressure;Samples;Min_cycle;Max_cycle;Signal;HPM_P1;HPM_P2
2021/12/07 00:01:38;;;;;;;22.90;14.85;;;;;;;3.04;74.52;100292.03;5079973;28;20126;-49
2021/12/07 00:04:04;;;;;;;24.70;15.25;;;;;;;3.03;74.35;100295.50;5079864;28;20027;-49
2021/12/07 00:06:30;;;;;;;26.77;16.10;;;;;;;3.04;74.56;100294.63;5077932;28;20546;-49
2021/12/07 00:08:56;;;;;;;24.50;14.65;;;;;;;3.03;74.71;100285.06;5083568;28;20103;-51
2021/12/07 00:11:27;;;;;;;24.40;15.35;;;;;;;3.02;74.55;100283.28;5082549;28;20059;-51
2021/12/07 00:13:52;;;;;;;26.83;15.73;;;;;;;3.02;74.01;100278.97;5084495;28;20108;-51
2021/12/07 00:16:19;;;;;;;27.02;14.68;;;;;;;3.01;74.59;100269.41;5078761;28;20378;-50
2021/12/07 00:18:45;;;;;;;22.08;14.45;;;;;;;3.03;74.47;100264.22;5078836;28;20029;-51
2021/12/07 00:21:10;;;;;;;25.23;16.02;;;;;;;3.02;74.59;100257.25;5075228;28;20016;-51
2021/12/07 00:23:35;;;;;;;22.55;14.90;;;;;;;3.02;74.36;100255.53;5083011;28;20043;-51
2021/12/07 00:26:01;;;;;;;24.58;16.40;;;;;;;3.02;74.32;100247.72;5078989;28;20032;-51
2021/12/07 00:28:26;;;;;;;26.30;16.67;;;;;;;3.02;74.45;100244.22;5078753;28;20032;-51
2021/12/07 00:30:52;;;;;;;23.42;15.45;;;;;;;3.00;74.39;100244.19;5082347;28;20020;-51
2021/12/07 00:35:53;;;;;;;29.20;16.95;;;;;;;3.00;74.35;100227.69;5078150;28;20039;-51
2021/12/07 00:38:21;;;;;;;24.58;15.60;;;;;;;3.01;74.34;100229.44;5078185;28;20055;-51
2021/12/07 00:40:48;;;;;;;24.38;16.15;;;;;;;3.02;74.52;100228.59;5079908;28;20052;-50
2021/12/07 00:43:14;;;;;;;27.02;15.65;;;;;;;3.01;74.13;100225.13;5083820;28;20024;-51
2021/12/07 00:45:43;;;;;;;24.17;15.32;;;;;;;3.02;74.73;100231.19;5079805;28;20020;-51
2021/12/07 00:48:08;;;;;;;23.58;14.88;;;;;;;3.02;74.43;100228.59;5080728;28;20024;-50
2021/12/07 00:50:36;;;;;;;23.33;15.25;;;;;;;3.02;74.24;100237.28;5082926;28;20027;-51
2021/12/07 00:53:05;;;;;;;24.45;15.35;;;;;;;3.02;74.10;100236.41;5081713;28;20032;-49
2021/12/07 00:55:34;;;;;;;22.38;15.27;;;;;;;2.99;74.38;100238.94;5084196;28;20020;-51
2021/12/07 00:58:05;;;;;;;22.50;15.20;;;;;;;2.99;74.62;100237.22;5062677;28;20476;-52
2021/12/07 01:00:31;;;;;;;25.83;15.30;;;;;;;3.00;74.27;100244.19;5090904;28;20016;-51
2021/12/07 01:02:58;;;;;;;23.73;15.45;;;;;;;3.01;74.56;100245.06;5065146;28;20043;-51
2021/12/07 01:05:29;;;;;;;22.05;14.82;;;;;;;2.99;74.17;100238.94;5084377;28;20024;-52
2021/12/07 01:08:14;;;;;;;23.20;15.40;;;;;;;2.99;74.00;100239.84;5084370;28;20038;-51
2021/12/07 01:24:40;;;;;;;24.42;14.95;;;;;;;2.98;74.65;100238.09;5065983;28;20476;-52
2021/12/07 01:24:45;;;;;;;22.85;15.23;;;;;;;2.97;74.27;100228.53;5083690;28;20042;-52
2021/12/07 01:27:13;;;;;;;27.40;16.23;;;;;;;2.97;74.18;100238.97;5086081;28;20754;-52
2021/12/07 01:29:41;;;;;;;23.42;14.02;;;;;;;2.97;74.58;100227.66;5084733;28;20086;-50
2021/12/07 01:32:20;;;;;;;22.85;14.75;;;;;;;2.95;74.52;100215.47;5084301;28;20158;-52
2021/12/07 01:40:50;;;;;;;23.27;14.68;;;;;;;2.94;74.57;100197.22;5053037;28;20041;-51
2021/12/07 01:43:53;;;;;;;20.60;14.23;;;;;;;2.95;74.59;100194.63;5076603;28;20495;-49
2021/12/07 01:59:45;;;;;;;22.67;14.88;;;;;;;2.94;74.42;100172.03;5068927;28;20096;-52
2021/12/07 02:02:15;;;;;;;22.88;13.60;;;;;;;2.95;74.26;100167.69;5079743;28;20137;-52
2021/12/07 02:04:41;;;;;;;23.47;15.23;;;;;;;2.93;74.50;100167.69;5078022;28;20085;-51
2021/12/07 02:07:08;;;;;;;21.10;13.77;;;;;;;2.93;74.57;100165.06;5081630;28;20098;-52
2021/12/07 02:09:35;;;;;;;23.25;14.90;;;;;;;2.94;74.46;100166.81;5086941;28;20027;-51
2021/12/07 02:12:02;;;;;;;24.55;14.70;;;;;;;2.94;74.23;100160.75;5083628;28;21360;-51
2021/12/07 02:14:29;;;;;;;22.17;14.07;;;;;;;2.93;74.44;100154.66;5080114;28;20062;-51
2021/12/07 02:16:58;;;;;;;20.95;13.73;;;;;;;2.93;74.46;100148.56;5084001;28;20057;-51
2021/12/07 02:19:24;;;;;;;24.65;14.48;;;;;;;2.92;74.35;100139.88;5081494;28;20036;-51
2021/12/07 02:21:52;;;;;;;23.48;14.40;;;;;;;2.91;74.38;100145.06;5085858;28;20053;-51
2021/12/07 02:24:18;;;;;;;19.30;13.57;;;;;;;2.93;74.56;100136.41;5066920;28;21323;-51
2021/12/07 02:26:43;;;;;;;23.90;15.25;;;;;;;2.92;74.16;100134.66;5081497;28;20114;-49
2021/12/07 02:29:09;;;;;;;21.65;14.30;;;;;;;2.91;74.13;100127.72;5081780;28;20036;-52
2021/12/07 02:31:35;;;;;;;20.38;13.10;;;;;;;2.92;74.41;100125.97;5081262;28;20090;-51
2021/12/07 02:34:01;;;;;;;26.33;16.05;;;;;;;2.91;74.59;100108.59;5062294;28;20487;-48
2021/12/07 02:36:26;;;;;;;24.58;14.63;;;;;;;2.93;74.59;100127.72;5084014;28;20031;-51
2021/12/07 02:38:52;;;;;;;21.83;14.07;;;;;;;2.94;74.09;100113.84;5079622;28;20016;-51
2021/12/07 02:41:17;;;;;;;21.10;14.32;;;;;;;2.92;74.27;100120.75;5079614;28;20039;-51
2021/12/07 02:43:43;;;;;;;21.50;15.00;;;;;;;2.90;74.19;100112.06;5082670;28;20067;-51
2021/12/07 02:46:09;;;;;;;21.60;13.52;;;;;;;2.90;74.23;100105.09;5080061;28;20027;-51
2021/12/07 02:48:34;;;;;;;20.73;14.18;;;;;;;2.92;74.30;100116.44;5076425;28;20028;-50
2021/12/07 02:51:00;;;;;;;20.88;13.93;;;;;;;2.92;74.30;100111.22;5083920;28;20039;-51
2021/12/07 02:53:27;;;;;;;21.63;13.63;;;;;;;2.91;73.91;100109.47;5062389;28;20032;-50
2021/12/07 02:55:54;;;;;;;21.10;13.43;;;;;;;2.90;74.43;100099.91;5063517;28;20525;-51
2021/12/07 02:58:19;;;;;;;21.75;14.27;;;;;;;2.90;74.24;100102.50;5085922;28;20031;-50
2021/12/07 03:00:55;;;;;;;20.30;14.07;;;;;;;2.89;74.61;100108.56;5081669;28;20028;-51
2021/12/07 03:03:24;;;;;;;20.88;14.63;;;;;;;2.89;74.49;100105.97;5081003;28;20142;-51
2021/12/07 03:05:59;;;;;;;21.40;13.25;;;;;;;2.89;74.81;100107.69;5061666;28;20031;-50
2021/12/07 03:09:09;;;;;;;19.67;13.57;;;;;;;2.89;74.21;100103.38;5066584;28;20059;-51
2021/12/07 03:27:55;;;;;;;20.63;14.35;;;;;;;2.86;74.40;100111.13;5082953;28;20047;-51
2021/12/07 03:30:22;;;;;;;21.77;13.48;;;;;;;2.86;74.17;100105.91;5083451;28;20491;-51
2021/12/07 03:32:47;;;;;;;20.92;14.15;;;;;;;2.87;74.23;100114.63;5084385;28;20028;-51
2021/12/07 03:35:14;;;;;;;22.00;13.05;;;;;;;2.86;74.74;100118.94;5080449;28;20024;-51
2021/12/07 03:37:39;;;;;;;21.45;14.27;;;;;;;2.86;74.32;100116.34;5061753;28;20526;-51
2021/12/07 03:40:06;;;;;;;22.02;13.52;;;;;;;2.85;74.32;100117.19;5080740;28;20060;-50
2021/12/07 03:42:31;;;;;;;20.73;13.70;;;;;;;2.81;74.17;100116.28;5079985;28;20103;-51
2021/12/07 03:44:57;;;;;;;20.45;13.52;;;;;;;2.83;74.16;100124.09;5080436;28;20112;-51
2021/12/07 03:47:22;;;;;;;21.63;13.63;;;;;;;2.85;74.46;100118.91;5077203;28;20036;-51
2021/12/07 03:49:47;;;;;;;22.60;14.52;;;;;;;2.84;74.20;100122.38;5080363;28;20537;-51
2021/12/07 03:52:12;;;;;;;23.60;14.50;;;;;;;2.84;74.03;100133.69;5082061;28;20016;-51
2021/12/07 03:54:38;;;;;;;21.25;14.18;;;;;;;2.84;74.06;100133.69;5080252;28;20054;-51
2021/12/07 03:57:03;;;;;;;18.05;13.40;;;;;;;2.85;74.28;100127.63;5074621;28;20021;-51
2021/12/07 03:59:29;;;;;;;19.70;13.60;;;;;;;2.84;74.20;100131.09;5076719;28;20051;-51
2021/12/07 04:01:54;;;;;;;20.20;13.98;;;;;;;2.81;74.46;100133.66;5077650;28;20028;-51
2021/12/07 04:04:22;;;;;;;20.90;13.55;;;;;;;2.81;73.97;100128.44;5077381;28;20104;-51
2021/12/07 04:06:47;;;;;;;24.10;14.18;;;;;;;2.85;74.34;100124.13;5084897;28;20480;-51
2021/12/07 04:09:13;;;;;;;21.30;13.13;;;;;;;2.84;74.46;100123.28;5083718;28;20107;-49
2021/12/07 04:11:38;;;;;;;22.33;13.65;;;;;;;2.80;74.23;100117.13;5079994;28;20028;-52
2021/12/07 04:14:03;;;;;;;20.77;13.45;;;;;;;2.79;74.45;100110.19;5082420;28;20481;-49
2021/12/07 04:16:29;;;;;;;23.15;13.30;;;;;;;2.81;74.13;100118.88;5077739;28;20029;-51
2021/12/07 04:18:54;;;;;;;22.00;13.82;;;;;;;2.82;74.21;100119.75;5078555;28;20039;-51
2021/12/07 04:21:20;;;;;;;22.20;13.90;;;;;;;2.82;74.42;100119.75;5075791;28;20025;-49
2021/12/07 04:23:45;;;;;;;21.60;13.32;;;;;;;2.82;74.41;100109.34;5058835;28;20025;-51
2021/12/07 04:26:12;;;;;;;19.70;13.65;;;;;;;2.84;73.93;100125.88;5084186;28;20051;-51
2021/12/07 04:28:38;;;;;;;20.10;12.63;;;;;;;2.82;74.42;100119.75;5081639;28;20033;-51
2021/12/07 04:31:04;;;;;;;22.08;14.65;;;;;;;2.84;74.24;100114.56;5060713;28;20031;-52
2021/12/07 04:33:30;;;;;;;21.15;14.00;;;;;;;2.80;74.53;100106.72;5076305;28;20138;-52
2021/12/07 04:35:56;;;;;;;20.67;13.65;;;;;;;2.81;74.23;100111.06;5077654;28;20036;-51
2021/12/07 04:38:21;;;;;;;22.13;13.68;;;;;;;2.82;74.19;100114.56;5075158;28;20028;-51
2021/12/07 04:40:47;;;;;;;21.45;14.23;;;;;;;2.80;74.37;100108.47;5080175;28;20039;-51
2021/12/07 04:43:13;;;;;;;22.83;14.73;;;;;;;2.79;74.23;100110.19;5079545;28;20107;-51
2021/12/07 04:58:58;;;;;;;23.92;14.25;;;;;;;2.76;74.13;100110.13;5083793;28;20498;-51
2021/12/07 05:01:25;;;;;;;20.52;13.75;;;;;;;2.80;74.43;100105.84;5077328;28;20064;-50
2021/12/07 05:03:53;;;;;;;19.85;13.65;;;;;;;2.80;74.18;100111.06;5078867;28;20432;-51
2021/12/07 05:06:21;;;;;;;21.35;13.32;;;;;;;2.76;74.42;100111.84;5079781;28;20024;-51
2021/12/07 05:08:55;;;;;;;19.67;13.52;;;;;;;2.77;74.28;100105.81;5079442;28;20023;-50
2021/12/07 05:14:17;;;;;;;19.08;13.18;;;;;;;2.76;74.09;100101.44;5083527;28;20056;-50
2021/12/07 05:16:52;;;;;;;21.13;13.85;;;;;;;2.75;74.10;100107.50;5083294;28;20031;-51
2021/12/07 05:38:24;;;;;;;19.73;13.05;;;;;;;2.74;73.89;100100.56;5079872;28;20414;-51
2021/12/07 05:40:50;;;;;;;19.10;12.60;;;;;;;2.76;74.08;100106.63;5081833;28;20017;-51
2021/12/07 05:43:15;;;;;;;18.50;13.48;;;;;;;2.74;74.08;100095.34;5085170;28;20039;-51
2021/12/07 05:45:41;;;;;;;21.08;13.82;;;;;;;2.74;74.07;100095.34;5081897;28;20055;-52
2021/12/07 05:48:07;;;;;;;16.15;12.23;;;;;;;2.71;74.20;100095.28;5081245;28;20042;-47
2021/12/07 05:50:35;;;;;;;19.92;13.13;;;;;;;2.72;74.40;100092.72;5086436;28;20032;-47
2021/12/07 05:53:02;;;;;;;21.25;13.88;;;;;;;2.72;73.96;100094.44;5067267;28;20055;-48
2021/12/07 05:55:27;;;;;;;18.10;12.90;;;;;;;2.72;74.48;100099.63;5080842;28;20036;-51
2021/12/07 05:57:53;;;;;;;18.73;12.85;;;;;;;2.74;74.17;100100.56;5080812;28;20065;-49
2021/12/07 06:00:26;;;;;;;20.48;14.27;;;;;;;2.73;74.33;100094.47;5085269;28;20023;-48
2021/12/07 06:02:58;;;;;;;18.23;13.13;;;;;;;2.73;74.10;100091.00;5082521;28;20119;-48
2021/12/07 06:05:24;;;;;;;20.55;12.52;;;;;;;2.72;74.10;100099.63;5082357;28;20469;-50
2021/12/07 06:07:49;;;;;;;19.80;13.60;;;;;;;2.71;74.18;100092.69;5080342;28;20028;-48
2021/12/07 06:10:15;;;;;;;20.33;13.25;;;;;;;2.70;74.00;100094.41;5082232;28;20102;-48
2021/12/07 06:12:40;;;;;;;17.70;11.10;;;;;;;2.71;74.18;100098.78;5080624;28;20479;-49
2021/12/07 06:15:07;;;;;;;18.73;12.38;;;;;;;2.69;74.29;100098.75;5065121;28;20074;-48
2021/12/07 06:17:32;;;;;;;19.52;12.10;;;;;;;2.69;74.38;100103.97;5057934;28;20111;-47
2021/12/07 06:19:57;;;;;;;18.25;12.45;;;;;;;2.72;74.17;100112.66;5086714;28;20413;-49
2021/12/07 06:22:23;;;;;;;18.25;12.48;;;;;;;2.69;74.16;100106.56;5085591;28;20028;-49
2021/12/07 06:24:48;;;;;;;16.33;12.25;;;;;;;2.71;73.93;100103.09;5080724;28;20035;-48
2021/12/07 06:27:13;;;;;;;18.30;12.43;;;;;;;2.69;73.93;100101.38;5068363;28;20024;-48
2021/12/07 06:29:39;;;;;;;19.75;12.85;;;;;;;2.69;74.28;100113.50;5080026;28;20052;-49
2021/12/07 06:32:05;;;;;;;18.88;13.00;;;;;;;2.67;74.18;100110.88;5083721;28;20020;-47
2021/12/07 06:34:31;;;;;;;18.20;12.15;;;;;;;2.69;74.10;100114.38;5081734;28;20028;-49
2021/12/07 06:36:57;;;;;;;19.17;12.68;;;;;;;2.68;74.41;100120.47;5083223;28;20060;-48
2021/12/07 06:39:22;;;;;;;16.73;12.18;;;;;;;2.67;74.49;100121.28;5083843;28;20067;-48
2021/12/07 06:41:49;;;;;;;17.52;12.48;;;;;;;2.66;74.07;100124.75;5081432;28;20024;-47
2021/12/07 06:44:15;;;;;;;18.48;12.68;;;;;;;2.65;73.93;100123.00;5061264;28;20422;-47
2021/12/07 06:46:40;;;;;;;16.70;11.65;;;;;;;2.66;74.32;100124.75;5081534;28;20108;-49
2021/12/07 06:49:05;;;;;;;19.00;12.38;;;;;;;2.67;74.56;100121.28;5083192;28;20037;-49
2021/12/07 06:51:30;;;;;;;19.15;12.40;;;;;;;2.66;74.39;100122.16;5080130;28;20031;-48
2021/12/07 06:53:56;;;;;;;17.67;12.10;;;;;;;2.66;74.30;100127.34;5079851;28;20066;-50
2021/12/07 06:56:21;;;;;;;16.48;12.10;;;;;;;2.67;74.52;100123.91;5065704;28;20024;-47
2021/12/07 06:58:47;;;;;;;17.40;12.02;;;;;;;2.67;73.97;100123.03;5079480;28;20392;-48
2021/12/07 07:01:12;;;;;;;16.45;11.77;;;;;;;2.63;74.23;100124.69;5066698;28;20490;-49
2021/12/07 07:03:39;;;;;;;19.58;13.30;;;;;;;2.63;74.40;100122.09;5080662;28;20035;-49
2021/12/07 07:06:05;;;;;;;20.02;12.93;;;;;;;2.66;74.03;100126.47;5078482;28;20028;-48
2021/12/07 07:08:31;;;;;;;16.33;11.57;;;;;;;2.66;74.58;100129.06;5077923;28;20040;-47
2021/12/07 07:10:59;;;;;;;17.67;11.73;;;;;;;2.64;74.25;100125.59;5084456;28;20161;-47
2021/12/07 07:13:25;;;;;;;16.33;12.05;;;;;;;2.65;74.22;100132.53;5079037;28;20036;-47
2021/12/07 07:15:50;;;;;;;16.98;11.88;;;;;;;2.64;74.29;100129.06;5075607;28;20059;-47
2021/12/07 07:18:15;;;;;;;16.45;11.85;;;;;;;2.65;74.31;100128.22;5079377;28;20031;-50
2021/12/07 07:20:41;;;;;;;17.80;11.45;;;;;;;2.63;74.32;100139.47;5076821;28;20020;-48
2021/12/07 07:23:08;;;;;;;17.45;12.73;;;;;;;2.63;74.07;100137.72;5081237;28;20044;-48
2021/12/07 07:25:33;;;;;;;16.88;11.85;;;;;;;2.65;74.19;100143.84;5059697;28;20158;-50
2021/12/07 07:27:59;;;;;;;16.73;11.88;;;;;;;2.64;74.24;100147.28;5086605;28;20046;-52
2021/12/07 07:30:25;;;;;;;18.60;13.02;;;;;;;2.63;74.39;100145.53;5078877;28;20028;-47
2021/12/07 07:32:50;;;;;;;17.27;12.63;;;;;;;2.63;74.26;100155.09;5084208;28;20039;-47
2021/12/07 07:35:16;;;;;;;16.55;11.25;;;;;;;2.64;74.24;100162.03;5080193;28;20057;-47
2021/12/07 07:37:42;;;;;;;15.52;11.40;;;;;;;2.63;74.29;100165.50;5082039;28;20119;-48
2021/12/07 07:40:11;;;;;;;17.48;11.77;;;;;;;2.65;73.96;100164.69;5085463;28;20059;-49
2021/12/07 07:42:36;;;;;;;18.27;11.93;;;;;;;2.63;74.11;100170.72;5084208;28;20135;-48
2021/12/07 07:45:07;;;;;;;15.93;11.88;;;;;;;2.63;74.46;100173.31;5081347;28;20099;-50
2021/12/07 07:47:32;;;;;;;15.15;11.55;;;;;;;2.62;74.15;100169.84;5062315;28;20040;-49
2021/12/07 07:49:57;;;;;;;15.05;11.18;;;;;;;2.61;74.40;100167.19;5065764;28;20037;-48
2021/12/07 07:52:23;;;;;;;14.40;10.43;;;;;;;2.63;74.38;100168.97;5075945;28;20028;-49
2021/12/07 07:54:48;;;;;;;17.02;11.20;;;;;;;2.61;73.91;100167.19;5079129;28;20028;-47
2021/12/07 07:57:14;;;;;;;16.80;11.00;;;;;;;2.60;74.62;100174.13;5082438;28;20036;-52
2021/12/07 07:59:40;;;;;;;16.77;11.40;;;;;;;2.61;74.39;100181.09;5076388;28;20035;-48
2021/12/07 08:02:06;;;;;;;17.55;11.75;;;;;;;2.61;74.18;100175.91;5081276;28;20660;-49
2021/12/07 08:04:31;;;;;;;16.13;10.45;;;;;;;2.61;74.44;100183.72;5057655;28;20020;-49
2021/12/07 08:06:56;;;;;;;15.57;10.75;;;;;;;2.63;74.36;100181.13;5064064;28;20797;-49
2021/12/07 08:09:22;;;;;;;17.17;10.70;;;;;;;2.61;74.45;100183.72;5061120;28;20024;-49
2021/12/07 08:11:47;;;;;;;15.68;10.82;;;;;;;2.61;74.57;100190.63;5076709;28;20101;-49
2021/12/07 08:14:13;;;;;;;16.65;10.93;;;;;;;2.59;74.22;100188.00;5079153;28;20084;-47
2021/12/07 08:16:38;;;;;;;16.70;10.95;;;;;;;2.62;74.04;100189.78;5080773;28;20023;-48
2021/12/07 08:19:04;;;;;;;16.05;10.82;;;;;;;2.59;74.19;100182.78;5075389;28;20398;-47
2021/12/07 08:21:29;;;;;;;14.32;9.90;;;;;;;2.60;74.39;100187.16;5084309;28;20432;-48
2021/12/07 08:23:54;;;;;;;16.90;10.70;;;;;;;2.60;74.11;100196.69;5077688;28;20025;-51
2021/12/07 08:26:22;;;;;;;15.32;10.88;;;;;;;2.58;74.33;100190.56;5084250;28;20028;-49
2021/12/07 08:28:51;;;;;;;14.75;10.27;;;;;;;2.57;74.28;100192.31;5080145;28;20582;-49
2021/12/07 08:31:16;;;;;;;16.15;10.88;;;;;;;2.61;74.13;100188.91;5081677;28;20351;-48
2021/12/07 08:33:42;;;;;;;13.60;10.35;;;;;;;2.59;74.45;100201.03;5079424;28;20487;-48
2021/12/07 08:36:07;;;;;;;14.93;10.38;;;;;;;2.59;74.05;100190.59;5083297;28;20024;-47
2021/12/07 08:38:34;;;;;;;15.43;10.43;;;;;;;2.59;74.34;100206.22;5078091;28;20082;-48
2021/12/07 08:40:59;;;;;;;15.15;10.45;;;;;;;2.56;74.06;100201.84;5083638;28;20008;-47
2021/12/07 08:43:28;;;;;;;14.25;10.20;;;;;;;2.58;74.23;100209.69;5082678;28;20035;-48
2021/12/07 08:45:54;;;;;;;13.93;9.68;;;;;;;2.57;74.39;100213.16;5078115;28;20027;-49
2021/12/07 08:48:20;;;;;;;14.73;10.10;;;;;;;2.57;74.53;100205.34;5077093;28;20487;-48
2021/12/07 08:50:46;;;;;;;15.18;11.13;;;;;;;2.60;74.42;100207.97;5079908;28;20098;-48
2021/12/07 08:53:13;;;;;;;14.93;9.95;;;;;;;2.58;74.64;100209.69;5081061;28;20103;-51
2021/12/07 09:01:10;;;;;;;14.65;10.48;;;;;;;2.58;74.35;100216.63;5066023;28;20475;-48
2021/12/07 09:03:36;;;;;;;15.85;10.85;;;;;;;2.55;74.45;100213.13;5075355;28;20056;-53
2021/12/07 09:06:02;;;;;;;15.40;10.43;;;;;;;2.55;74.35;100215.72;5075871;28;20036;-47
2021/12/07 09:08:27;;;;;;;15.48;10.40;;;;;;;2.56;74.44;100216.59;5077597;28;20043;-48
2021/12/07 09:10:52;;;;;;;14.63;10.75;;;;;;;2.57;74.37;100218.38;5078473;28;20534;-54
2021/12/07 09:13:20;;;;;;;15.20;10.23;;;;;;;2.54;74.24;100215.72;5085036;28;20028;-49
2021/12/07 09:15:45;;;;;;;13.65;9.80;;;;;;;2.55;74.52;100220.06;5079687;28;20044;-47
2021/12/07 09:18:10;;;;;;;16.25;10.90;;;;;;;2.56;74.76;100227.00;5084640;28;20539;-56
2021/12/07 09:20:36;;;;;;;12.27;9.35;;;;;;;2.53;74.58;100216.53;5080161;28;20522;-48
2021/12/07 09:23:02;;;;;;;13.93;9.77;;;;;;;2.55;74.42;100227.88;5079839;28;20456;-47
2021/12/07 09:25:27;;;;;;;12.05;9.32;;;;;;;2.55;74.55;100223.53;5061690;28;20060;-48
2021/12/07 09:27:53;;;;;;;13.52;9.77;;;;;;;2.55;74.67;100227.88;5080374;28;20035;-49
2021/12/07 09:30:20;;;;;;;15.48;9.77;;;;;;;2.55;74.57;100225.25;5067393;28;20032;-48
2021/12/07 09:32:47;;;;;;;14.45;9.23;;;;;;;2.57;74.36;100228.78;5085827;28;20507;-49
2021/12/07 09:35:13;;;;;;;14.43;9.50;;;;;;;2.56;74.50;100230.50;5071074;28;20387;-49
2021/12/07 09:37:38;;;;;;;13.48;9.65;;;;;;;2.57;74.54;100234.00;5083668;28;20040;-48
2021/12/07 09:40:07;;;;;;;14.77;10.20;;;;;;;2.56;74.49;100232.22;5082834;28;20031;-51
2021/12/07 09:42:32;;;;;;;12.82;9.23;;;;;;;2.58;74.32;100233.13;5082482;28;20531;-52
2021/12/07 09:44:57;;;;;;;14.65;9.93;;;;;;;2.58;74.58;100233.13;5083487;28;20028;-49
2021/12/07 09:47:23;;;;;;;14.45;9.75;;;;;;;2.57;74.30;100228.78;5061388;28;20385;-53
2021/12/07 09:49:49;;;;;;;14.57;9.40;;;;;;;2.59;74.79;100242.69;5081950;28;20098;-49
2021/12/07 09:52:14;;;;;;;12.60;8.65;;;;;;;2.60;74.48;100241.81;5082122;28;20059;-48
2021/12/07 09:54:39;;;;;;;13.63;9.60;;;;;;;2.60;74.23;100246.19;5079131;28;20215;-48
2021/12/07 09:57:05;;;;;;;15.85;9.80;;;;;;;2.60;74.63;100244.44;5081312;28;20111;-49
2021/12/07 09:59:30;;;;;;;11.40;9.18;;;;;;;2.60;74.72;100238.38;5081190;28;20023;-48
2021/12/07 10:01:56;;;;;;;14.95;9.68;;;;;;;2.61;74.41;100238.41;5081697;28;20365;-48
2021/12/07 10:04:27;;;;;;;13.80;9.65;;;;;;;2.60;74.44;100239.22;5085475;28;20505;-48
2021/12/07 10:06:55;;;;;;;13.73;9.50;;;;;;;2.62;74.46;100240.13;5064652;28;20059;-48
2021/12/07 10:09:20;;;;;;;12.65;8.85;;;;;;;2.60;74.56;100236.63;5081672;28;20024;-48
2021/12/07 10:11:49;;;;;;;11.55;9.35;;;;;;;2.58;74.66;100234.84;5080294;28;20119;-49
2021/12/07 10:14:14;;;;;;;14.55;10.15;;;;;;;2.59;74.63;100242.69;5081572;28;20487;-49
2021/12/07 10:16:45;;;;;;;15.60;9.80;;;;;;;2.59;74.64;100242.69;5061077;28;20063;-47
2021/12/07 10:19:11;;;;;;;13.35;9.48;;;;;;;2.59;74.64;100242.69;5080300;28;20778;-47
2021/12/07 10:21:40;;;;;;;13.63;9.88;;;;;;;2.59;74.92;100240.06;5080839;28;20028;-48
2021/12/07 10:24:09;;;;;;;15.23;9.90;;;;;;;2.60;75.08;100239.22;5078906;28;20102;-51
2021/12/07 10:26:40;;;;;;;12.40;9.00;;;;;;;2.61;74.65;100241.00;5080645;28;20411;-47
2021/12/07 10:29:20;;;;;;;11.63;9.13;;;;;;;2.62;75.00;100242.75;5082589;28;20020;-50
2021/12/07 10:32:01;;;;;;;13.55;9.70;;;;;;;2.61;74.82;100241.00;5079653;28;20070;-48
2021/12/07 10:34:30;;;;;;;13.80;10.10;;;;;;;2.62;74.72;100239.25;5082303;28;20066;-49
2021/12/07 10:37:14;;;;;;;12.38;9.55;;;;;;;2.63;74.91;100238.41;5083209;28;20388;-49
2021/12/07 10:39:46;;;;;;;13.88;10.30;;;;;;;2.63;74.86;100231.47;5066087;28;20499;-49
2021/12/07 10:42:28;;;;;;;13.43;9.20;;;;;;;2.65;nan;100236.69;5083164;28;20032;-48
2021/12/07 10:44:54;;;;;;;14.38;9.38;;;;;;;2.64;75.07;100230.59;5077907;28;20031;-48
2021/12/07 10:47:21;;;;;;;12.38;9.23;;;;;;;2.67;74.93;100235.00;5079832;28;20110;-54
2021/12/07 10:50:01;;;;;;;12.77;9.27;;;;;;;2.67;74.86;100230.66;5071126;28;20407;-49
2021/12/07 10:52:38;;;;;;;12.90;9.68;;;;;;;2.68;74.77;100237.66;5080454;28;20098;-49
2021/12/07 10:55:21;;;;;;;12.65;9.35;;;;;;;2.68;74.82;100231.53;5087357;28;20519;-48
2021/12/07 10:57:52;;;;;;;13.77;9.23;;;;;;;2.67;74.85;100235.88;5083879;28;20028;-51
2021/12/07 11:00:36;;;;;;;11.23;8.63;;;;;;;2.67;75.00;100241.06;5079800;28;20028;-48
2021/12/07 11:03:08;;;;;;;12.50;8.90;;;;;;;2.68;74.89;100242.84;5085387;28;20058;-48
2021/12/07 11:05:43;;;;;;;13.48;9.80;;;;;;;2.69;75.01;100247.19;5064618;28;20396;-51
2021/12/07 11:08:15;;;;;;;12.30;9.38;;;;;;;2.71;75.00;100235.94;5078884;28;20028;-49
2021/12/07 11:10:45;;;;;;;13.65;9.57;;;;;;;2.71;75.27;100226.41;5082756;28;20111;-48
2021/12/07 11:13:22;;;;;;;15.60;9.68;;;;;;;2.70;75.08;100219.41;5082034;28;20526;-51
2021/12/07 11:15:54;;;;;;;12.25;8.40;;;;;;;2.72;75.00;100216.84;5078987;28;20035;-50
2021/12/07 11:18:40;;;;;;;13.18;8.77;;;;;;;2.73;74.99;100229.03;5066931;28;20028;-49
2021/12/07 11:21:14;;;;;;;13.00;9.15;;;;;;;2.73;74.85;100234.25;5082253;28;20511;-50
2021/12/07 11:23:48;;;;;;;14.60;9.77;;;;;;;2.78;74.88;100243.00;5088438;28;20024;-48
2021/12/07 11:31:49;;;;;;;16.48;11.57;;;;;;;2.77;75.45;100238.63;5079817;28;20035;-48
2021/12/07 11:34:19;;;;;;;19.10;13.35;;;;;;;2.78;75.39;100237.78;5042785;28;20099;-49
2021/12/07 11:36:51;;;;;;;19.35;12.13;;;;;;;2.76;75.81;100239.47;5085055;28;20031;-50
2021/12/07 11:39:36;;;;;;;20.40;13.48;;;;;;;2.74;75.82;100242.06;5078482;28;20055;-49
2021/12/07 11:42:12;;;;;;;20.42;13.80;;;;;;;2.74;76.04;100244.69;5061852;28;20114;-49
2021/12/07 11:44:51;;;;;;;18.20;12.90;;;;;;;2.74;75.64;100243.78;5077149;28;20028;-49
2021/12/07 11:47:28;;;;;;;21.55;13.27;;;;;;;2.75;75.95;100240.31;5075749;28;20084;-51
2021/12/07 11:49:58;;;;;;;19.45;14.25;;;;;;;2.75;75.73;100246.44;5076573;28;20115;-49
2021/12/07 11:52:26;;;;;;;19.70;14.18;;;;;;;2.77;75.82;100247.31;5080141;28;20027;-48
2021/12/07 11:54:52;;;;;;;20.10;13.85;;;;;;;2.79;76.13;100252.53;5078717;28;20036;-50
2021/12/07 11:57:18;;;;;;;18.77;13.95;;;;;;;2.77;75.83;100252.53;5075383;28;20028;-53
2021/12/07 11:59:45;;;;;;;18.42;13.35;;;;;;;2.77;75.97;100252.53;5077337;28;20024;-51
2021/12/07 12:02:11;;;;;;;17.88;13.05;;;;;;;2.77;75.58;100244.72;5063409;28;20022;-53
2021/12/07 12:04:36;;;;;;;19.27;12.45;;;;;;;2.77;75.59;100243.84;5079424;28;20036;-52
2021/12/07 12:07:03;;;;;;;20.83;13.43;;;;;;;2.78;75.52;100240.38;5073334;28;20039;-49
2021/12/07 12:09:29;;;;;;;22.98;12.80;;;;;;;2.78;75.40;100253.41;5076994;28;20032;-51
2021/12/07 12:11:59;;;;;;;17.73;12.13;;;;;;;2.78;75.45;100258.63;5075149;28;20029;-50
2021/12/07 12:14:47;;;;;;;17.17;12.45;;;;;;;2.76;75.40;100257.69;5055400;28;20032;-51
2021/12/07 12:17:21;;;;;;;18.70;12.45;;;;;;;2.78;75.37;100258.63;5076653;28;20035;-54
2021/12/07 12:19:55;;;;;;;16.90;12.02;;;;;;;2.75;75.37;100264.66;5077851;28;20110;-52
2021/12/07 12:22:36;;;;;;;17.02;11.75;;;;;;;2.78;75.20;100271.63;5041973;28;20016;-56
2021/12/07 12:25:11;;;;;;;18.05;12.23;;;;;;;2.77;75.06;100262.94;5077975;28;20088;-52
2021/12/07 12:27:37;;;;;;;16.65;11.10;;;;;;;2.76;74.92;100274.22;5061138;28;20166;-53
2021/12/07 12:30:40;;;;;;;17.33;11.65;;;;;;;2.76;75.47;100274.22;5077764;28;20146;-50
2021/12/07 12:33:08;;;;;;;14.95;11.23;;;;;;;2.74;75.30;100272.44;5001315;28;20529;-52
2021/12/07 12:35:41;;;;;;;16.60;11.73;;;;;;;2.75;75.26;100268.97;5069803;28;20151;-52
2021/12/07 12:38:29;;;;;;;15.45;11.05;;;;;;;2.77;75.01;100272.50;5077495;28;20036;-51
2021/12/07 12:40:58;;;;;;;16.77;11.27;;;;;;;2.73;74.83;100276.75;5062061;28;20023;-52
2021/12/07 12:43:56;;;;;;;15.50;11.38;;;;;;;2.75;75.25;100269.88;5074875;28;20062;-51
2021/12/07 12:46:32;;;;;;;15.00;10.82;;;;;;;2.76;75.02;100273.31;5080192;28;20027;-51
2021/12/07 12:49:01;;;;;;;15.65;10.40;;;;;;;2.76;75.01;100283.75;5086828;28;20039;-51
2021/12/07 12:51:30;;;;;;;14.93;10.90;;;;;;;2.75;74.96;100275.06;5079588;28;20119;-51
2021/12/07 12:53:56;;;;;;;14.15;10.70;;;;;;;2.72;74.98;100275.03;5084854;28;20024;-51
2021/12/07 12:56:24;;;;;;;14.73;10.68;;;;;;;2.74;75.22;100277.66;5081093;28;20024;-50
2021/12/07 12:59:10;;;;;;;13.98;10.00;;;;;;;2.75;75.02;100285.50;5062196;28;20114;-51
2021/12/07 13:01:46;;;;;;;14.95;11.07;;;;;;;2.76;75.02;100275.94;5084118;28;20028;-51